Map

Track Data

SID SEASON NUMBER BASIN SUBBASIN NAME ISO_TIME NATURE LAT LON WMO_WIND WMO_PRES WMO_AGENCY TRACK_TYPE DIST2LAND LANDFALL IFLAG USA_AGENCY USA_ATCF_ID USA_LAT USA_LON USA_RECORD USA_STATUS USA_WIND USA_PRES USA_SSHS USA_R34_NE USA_R34_SE USA_R34_SW USA_R34_NW USA_R50_NE USA_R50_SE USA_R50_SW USA_R50_NW USA_R64_NE USA_R64_SE USA_R64_SW USA_R64_NW USA_POCI USA_ROCI USA_RMW USA_EYE TOKYO_LAT TOKYO_LON TOKYO_GRADE TOKYO_WIND TOKYO_PRES TOKYO_R50_DIR TOKYO_R50_LONG TOKYO_R50_SHORT TOKYO_R30_DIR TOKYO_R30_LONG TOKYO_R30_SHORT TOKYO_LAND CMA_LAT CMA_LON CMA_CAT CMA_WIND CMA_PRES HKO_LAT HKO_LON HKO_CAT HKO_WIND HKO_PRES NEWDELHI_LAT NEWDELHI_LON NEWDELHI_GRADE NEWDELHI_WIND NEWDELHI_PRES NEWDELHI_CI NEWDELHI_DP NEWDELHI_POCI REUNION_LAT REUNION_LON REUNION_TYPE REUNION_WIND REUNION_PRES REUNION_TNUM REUNION_CI REUNION_RMW REUNION_R34_NE REUNION_R34_SE REUNION_R34_SW REUNION_R34_NW REUNION_R50_NE REUNION_R50_SE REUNION_R50_SW REUNION_R50_NW REUNION_R64_NE REUNION_R64_SE REUNION_R64_SW REUNION_R64_NW BOM_LAT BOM_LON BOM_TYPE BOM_WIND BOM_PRES BOM_TNUM BOM_CI BOM_RMW BOM_R34_NE BOM_R34_SE BOM_R34_SW BOM_R34_NW BOM_R50_NE BOM_R50_SE BOM_R50_SW BOM_R50_NW BOM_R64_NE BOM_R64_SE BOM_R64_SW BOM_R64_NW BOM_ROCI BOM_POCI BOM_EYE BOM_POS_METHOD BOM_PRES_METHOD NADI_LAT NADI_LON NADI_CAT NADI_WIND NADI_PRES WELLINGTON_LAT WELLINGTON_LON WELLINGTON_WIND WELLINGTON_PRES DS824_LAT DS824_LON DS824_STAGE DS824_WIND DS824_PRES TD9636_LAT TD9636_LON TD9636_STAGE TD9636_WIND TD9636_PRES TD9635_LAT TD9635_LON TD9635_WIND TD9635_PRES TD9635_ROCI NEUMANN_LAT NEUMANN_LON NEUMANN_CLASS NEUMANN_WIND NEUMANN_PRES MLC_LAT MLC_LON MLC_CLASS MLC_WIND MLC_PRES USA_GUST BOM_GUST BOM_GUST_PER REUNION_GUST REUNION_GUST_PER USA_SEAHGT USA_SEARAD_NE USA_SEARAD_SE USA_SEARAD_SW USA_SEARAD_NW STORM_SPEED STORM_DIR
2005007N04085 2005 3 NI BB NOT_NAMED 2005-01-07 00:00:00 TS 3.50000 85.1000 main 505 496 O_____________ jtwc_io IO012005 3.50000 85.1000 TD 15 1006 -1 3 277
2005007N04085 2005 3 NI BB NOT_NAMED 2005-01-07 03:00:00 TS 3.51686 84.9668 main 496 480 P_____________ IO012005 3.51686 84.9668 TD 15 1006 -1 3 278
2005007N04085 2005 3 NI BB NOT_NAMED 2005-01-07 06:00:00 TS 3.53697 84.8370 main 480 464 P_____________ IO012005 3.53697 84.8370 TD 15 1006 -1 3 281
2005007N04085 2005 3 NI BB NOT_NAMED 2005-01-07 09:00:00 TS 3.56360 84.7136 main 464 457 P_____________ IO012005 3.56360 84.7136 TD 15 1006 -1 2 285
2005007N04085 2005 3 NI BB NOT_NAMED 2005-01-07 12:00:00 TS 3.60000 84.6000 main 457 449 O_____________ jtwc_io IO012005 3.60000 84.6000 TD 15 1006 -1 2 291
2005007N04085 2005 3 NI BB NOT_NAMED 2005-01-07 15:00:00 TS 3.64755 84.4976 main 449 433 P_____________ IO012005 3.64755 84.4976 TD 17 1005 -1 2 297
2005007N04085 2005 3 NI BB NOT_NAMED 2005-01-07 18:00:00 TS 3.70000 84.4000 main 433 426 O_____________ jtwc_io IO012005 3.70000 84.4000 TD 20 1004 -1 1006 100 45 2 298
2005007N04085 2005 3 NI BB NOT_NAMED 2005-01-07 21:00:00 TS 3.75000 84.3075 main 426 410 P_____________ IO012005 3.75000 84.3075 TD 20 1004 -1 1006 100 45 2 297
2005007N04085 2005 3 NI BB NOT_NAMED 2005-01-08 00:00:00 TS 3.80000 84.2000 main 410 402 O_____________ jtwc_io IO012005 3.80000 84.2000 TD 20 1004 -1 1006 100 45 3 288
2005007N04085 2005 3 NI BB NOT_NAMED 2005-01-08 03:00:00 TS 3.83500 84.0500 main 402 379 P_____________ IO012005 3.83500 84.0500 TD 22 1003 -1 1006 100 45 3 289
2005007N04085 2005 3 NI BB NOT_NAMED 2005-01-08 06:00:00 TS 3.90000 83.9000 main 379 364 O_____________ jtwc_io IO012005 3.90000 83.9000 TD 25 1002 -1 1006 100 45 3 306
2005007N04085 2005 3 NI BB NOT_NAMED 2005-01-08 09:00:00 TS 4.02000 83.7925 main 364 339 P_____________ IO012005 4.02000 83.7925 TD 27 1001 -1 4 327
2005007N04085 2005 3 NI BB NOT_NAMED 2005-01-08 12:00:00 TS 4.20000 83.7000 main 339 315 O_____________ jtwc_io IO012005 4.20000 83.7000 TD 30 1000 -1 5 335
2005007N04085 2005 3 NI BB NOT_NAMED 2005-01-08 15:00:00 TS 4.43500 83.5925 main 315 283 P_____________ IO012005 4.43500 83.5925 TD 30 1000 -1 5 338
2005007N04085 2005 3 NI BB NOT_NAMED 2005-01-08 18:00:00 TS 4.70000 83.5000 main 283 252 O_____________ jtwc_io IO012005 4.70000 83.5000 TD 30 1000 -1 35 6 345
2005007N04085 2005 3 NI BB NOT_NAMED 2005-01-08 21:00:00 TS 4.96500 83.4425 main 252 238 P_____________ IO012005 4.96500 83.4425 TD 27 1001 -1 5 349
2005007N04085 2005 3 NI BB NOT_NAMED 2005-01-09 00:00:00 TS 5.20000 83.4000 main 238 224 O_____________ jtwc_io IO012005 5.20000 83.4000 TD 25 1002 -1 35 4 348
2005007N04085 2005 3 NI BB NOT_NAMED 2005-01-09 03:00:00 TS 5.36500 83.3500 main 224 209 P_____________ IO012005 5.36500 83.3500 TD 25 1002 -1 3 343
2005007N04085 2005 3 NI BB NOT_NAMED 2005-01-09 06:00:00 TS 5.50000 83.3000 main 209 194 O_____________ jtwc_io IO012005 5.50000 83.3000 TD 25 1002 -1 35 3 340
2005007N04085 2005 3 NI BB NOT_NAMED 2005-01-09 09:00:00 TS 5.65000 83.2425 main 188 183 P_____________ IO012005 5.65000 83.2425 TD 25 1002 -1 3 343
2005007N04085 2005 3 NI BB NOT_NAMED 2005-01-09 12:00:00 TS 5.80000 83.2000 main 183 179 O_____________ jtwc_io IO012005 5.80000 83.2000 TD 25 1002 -1 35 3 351
2005007N04085 2005 3 NI BB NOT_NAMED 2005-01-09 15:00:00 TS 5.95000 83.1925 main 175 171 P_____________ IO012005 5.95000 83.1925 TD 25 1002 -1 3 0
2005007N04085 2005 3 NI BB NOT_NAMED 2005-01-09 18:00:00 TS 6.10000 83.2000 main 171 168 O_____________ jtwc_io IO012005 6.10000 83.2000 TD 25 1002 -1 35 3 0
2005007N04085 2005 3 NI BB NOT_NAMED 2005-01-09 21:00:00 TS 6.25000 83.2075 main 163 158 P_____________ IO012005 6.25000 83.2075 TD 25 1002 -1 3 0
2005007N04085 2005 3 NI BB NOT_NAMED 2005-01-10 00:00:00 TS 6.40000 83.2000 main 158 154 O_____________ jtwc_io IO012005 6.40000 83.2000 TD 25 1002 -1 35 3 351
2005007N04085 2005 3 NI BB NOT_NAMED 2005-01-10 03:00:00 TS 6.55000 83.1575 main 150 136 P_____________ IO012005 6.55000 83.1575 TD 22 1003 -1 3 343
2005007N04085 2005 3 NI BB NOT_NAMED 2005-01-10 06:00:00 TS 6.70000 83.1000 main 136 134 O_____________ jtwc_io IO012005 6.70000 83.1000 TD 20 1004 -1 30 3 340
2005007N04085 2005 3 NI BB NOT_NAMED 2005-01-10 09:00:00 TS 6.85000 83.0475 main 122 121 P_____________ IO012005 6.85000 83.0475 TD 20 1004 -1 3 343
2005007N04085 2005 3 NI BB NOT_NAMED 2005-01-10 12:00:00 TS 7.00000 83.0000 main 121 O_____________ jtwc_io IO012005 7.00000 83.0000 TD 20 1004 -1 3 348

About IBTrACS Database

This database is a web-friendly format of International Best Track Archive for Climate Stewardship (IBTrACS), a global best track data archive curated by NOAA dating back to 1842.

Updated: 2021-10-25